x

La Perouse Bank (46206) Wave Buoy

8:00 - Fri 1st Aug 2014 All times are PDT. -7 hours from GMT.

  • Sig Wave height 3.9ft
  • Peak Period 7s
  • Wind
    13mph, 16mph gusts
  • Sea Temp 59°f
  • Aire Temp 60°f
  • Sea Pressure 1016.4mb
  • La Perouse Bank
  • La Perouse Bank

More Historic Weather Station data

Upgrade to MSW Pro to gain access to the past 30 days of data for over 8000 Wavebouys and Weather Stations around the globe.

Join Pro

Comparision Forecast

View Surf forecast
   
vie 08/01 8:00 4ft 7s 13 16 mph 1016.4mb 59f 60f
7:00 3.5ft 6s 13 16 mph 1016.4mb 59f 60f
6:00 3.5ft 7s 13
mph
1016.7mb 60f 60f
5:00 3.5ft 6s 11 13 mph 1017.1mb 60f 61f
4:00 3.5ft 7s 11
mph
1017.6mb 62f 60f
3:00 3.5ft 6s 7 9 mph 1017.9mb 61f 60f
2:00 3.5ft 7s 2 4 mph 1018.2mb 63f 61f
1:00 3.5ft 6s  -  2 mph 1018.3mb 62f 59f
12:00 4ft 7s 2 4 mph 1018.6mb 60f 57f
11:00 4ft 7s 7
mph
1018.6mb 60f 56f
10:00 4ft 7s 4
mph
1018.6mb 59f 58f
9:00 3.5ft 7s 4 7 mph 1018.7mb 59f 58f
8:00 4ft 7s  -  2 mph 1018.6mb 58f 60f
7:00 3.5ft 7s 4
mph
1018.3mb 58f 59f
6:00 4ft 6s 9
mph
1017.8mb 58f 58f
5:00 4.5ft 7s 7
mph
1017.8mb 58f 58f
4:00 4ft 6s 9
mph
1017.9mb 58f 58f
3:00 4ft 6s 11 13 mph 1017.8mb 58f 58f
2:00 4ft 6s 11 13 mph 1018mb 58f 58f
1:00 4ft 6s 13 16 mph 1018mb 58f 58f
12:00 4ft 5s 18 22 mph 1018.3mb 59f 59f
jue 07/31 11:00 4ft 5s 18 20 mph 1018.6mb 59f 59f
10:00 4ft 5s 18 22 mph 1019mb 59f 59f
9:00 4ft 5s 18 20 mph 1019.2mb 59f 59f
8:00 4ft 5s 18 22 mph 1019.1mb 59f 60f
7:00 3.5ft 5s 18 22 mph 1019.3mb 59f 60f
6:00 3.5ft 6s 18 20 mph 1019.9mb 59f 60f
5:00 3.5ft 5s 16 20 mph 1020.2mb 59f 60f
3:00 3ft 6s 16 18 mph 1021mb 59f 60f
2:00 2.5ft 14s 13 16 mph 1021.5mb 59f 59f
1:00 3ft 6s 11 13 mph 1021.6mb 58f 59f
12:00 3ft 6s 11 13 mph 1021.6mb 58f 59f
11:00 3ft 6s 9 11 mph 1021.6mb 58f 59f
10:00 3ft 6s 9 11 mph 1021.5mb 58f 59f
9:00 3ft 5s 9 11 mph 1021.4mb 58f 59f
8:00 3ft 6s 11 13 mph 1021.3mb 58f 59f
7:00 3ft 6s 13
mph
1020.9mb 57f 58f
6:00 3ft 6s 11 13 mph 1020.7mb 57f 59f
5:00 3.5ft 14s 11 13 mph 1020.8mb 58f 58f
4:00 3.5ft 5s 13 18 mph 1020.8mb 58f 59f
3:00 3ft 5s 13 16 mph 1020.9mb 58f 59f
2:00 3.5ft 6s 13 18 mph 1020.9mb 58f 59f
1:00 3.5ft 6s 13 18 mph 1021.3mb 58f 59f
12:00 3ft 5s 16 18 mph 1021.4mb 58f 59f
mié 07/30 11:00 3.5ft 5s 16 18 mph 1021.5mb 58f 59f
10:00 3.5ft 4s 16 18 mph 1021.6mb 58f 59f
9:00 3.5ft 14s 16 18 mph 1021.8mb 58f 59f
8:00 4ft 7s 16 18 mph 1022.1mb 58f 59f
7:00 3.5ft 5s 16 20 mph 1022.1mb 58f 60f
6:00 3.5ft 5s 18 20 mph 1022.3mb 59f 60f
5:00 3.5ft 7s 18 20 mph 1022.5mb 58f 59f
4:00 3.5ft 14s 16 20 mph 1022.8mb 58f 59f
3:00 3.5ft 5s 16 18 mph 1022.9mb 58f 59f
2:00 3.5ft 7s 16 18 mph 1022.9mb 58f 59f
1:00 3.5ft 7s 16 18 mph 1023mb 58f 59f
12:00 3.5ft 5s 13 16 mph 1022.9mb 58f 59f
11:00 3.5ft 5s 11 13 mph 1022.8mb 57f 58f
10:00 3.5ft 6s 13 16 mph 1022.5mb 58f 58f
9:00 4ft 6s 13 16 mph 1022.5mb 57f 58f
8:00 4.5ft 6s 13 16 mph 1022.2mb 57f 58f
7:00 4.5ft 6s 16 18 mph 1021.9mb 57f 58f
6:00 4ft 6s 18 20 mph 1021.4mb 57f 59f
5:00 4ft 5s 16 18 mph 1021.3mb 57f 59f
4:00 4ft 5s 18 20 mph 1021.1mb 57f 59f
3:00 4ft 7s 20 22 mph 1021mb 58f 59f
2:00 4ft 5s 18 20 mph 1021mb 58f 59f
1:00 4ft 5s 18 20 mph 1021.1mb 58f 59f
12:00 4ft 4s 18 22 mph 1021mb 58f 60f
mar 07/29 11:00 4ft 4s 20 22 mph 1020.8mb 58f 60f
10:00 4ft 8s 18 20 mph 1021.1mb 59f 60f
9:00 3.5ft 8s 18 22 mph 1021mb 59f 60f
8:00 3.5ft 7s 20 22 mph 1021.1mb 59f 60f
7:00 3.5ft 8s 16 20 mph 1021.3mb 59f 60f
6:00 3ft 8s 16 18 mph 1021.7mb 59f 61f
5:00 3ft 8s 13
mph
1022.1mb 59f 61f
4:00 3ft 8s 11 13 mph 1022.3mb 59f 60f
3:00 3ft 7s 11 13 mph 1022.5mb 59f 61f
2:00 3ft 7s 11 16 mph 1022.5mb 59f 61f
1:00 3ft 8s 9 11 mph 1022.7mb 59f 60f
12:00 3ft 7s 9
mph
1022.8mb 59f 60f
11:00 3ft 8s 7
mph
1022.7mb 58f 59f
10:00 3ft 8s 4 7 mph 1022.5mb 58f 59f
9:00 3ft 8s 7
mph
1022.6mb 57f 59f
8:00 3ft 8s 13 16 mph 1022.5mb 57f 59f
7:00 2.5ft 8s 16 20 mph 1021.9mb 56f 58f
6:00 2.5ft 7s 16 20 mph 1021.5mb 56f 59f
5:00 2.5ft 8s 9 11 mph 1021.3mb 56f 59f